CDT,Max TemperatureF,Mean TemperatureF,Min TemperatureF,Max Dew PointF,MeanDew PointF,Min DewpointF,Max Humidity, Mean Humidity, Min Humidity, Max Sea Level PressureIn, Mean Sea Level PressureIn, Min Sea Level PressureIn, Max VisibilityMiles, Mean VisibilityMiles, Min VisibilityMiles, Max Wind SpeedMPH, Mean Wind SpeedMPH, Max Gust SpeedMPH,PrecipitationIn, CloudCover, Events, WindDirDegrees
2014-3-1,21,11,1,16,1,-9,80,70,61,30.45,30.30,30.08,10,8,1,18,14,26,0.00,8,Snow,349
2014-3-2,1,-2,-5,-9,-16,-20,66,53,39,30.56,30.51,30.43,10,10,6,18,15,28,0.00,3,,342
2014-3-3,17,5,-7,0,-9,-17,65,52,35,30.53,30.43,30.24,10,10,10,14,8,16,0.00,2,,207
2014-3-4,33,22,10,16,6,0,64,52,35,30.23,30.12,30.04,10,10,10,13,8,17,0.00,3,,148
2014-3-5,24,22,21,19,16,12,86,78,63,30.35,30.26,30.14,10,7,1,16,11,22,0.00,7,Snow,76
2014-3-6,37,28,19,27,21,16,93,78,60,30.34,30.15,29.93,10,9,4,14,9,22,0.00,4,,145
2014-3-7,46,37,26,36,29,21,87,74,65,30.09,29.92,29.82,10,8,2,18,12,25,0.00,4,,266
2014-3-8,33,28,23,25,23,19,93,79,60,30.30,30.23,30.09,10,10,9,15,11,18,0.00,5,,333
2014-3-9,55,38,21,36,27,18,93,64,44,30.29,30.02,29.80,10,10,9,21,10,29,0.00,0,,211
2014-3-10,66,54,41,43,37,30,76,56,37,29.81,29.74,29.68,10,10,10,15,10,20,0.00,2,,252
2014-3-11,48,42,37,39,35,27,87,75,58,29.92,29.68,29.57,10,10,10,31,12,46,0.00,5,,49
2014-3-12,37,32,28,27,21,16,80,62,44,30.12,30.06,29.91,10,10,10,22,16,32,0.00,4,,334
2014-3-13,62,44,26,34,28,21,86,57,30,30.11,29.93,29.72,10,10,6,22,9,24,0.00,2,,201
2014-3-14,55,46,37,32,27,23,65,47,35,29.97,29.79,29.61,10,10,10,28,15,36,0.00,1,,276
2014-3-15,50,41,32,30,27,21,93,63,37,30.18,30.02,29.97,10,10,2,21,9,32,0.00,3,Snow,67
2014-3-16,32,28,23,28,17,10,93,65,41,30.34,30.23,30.11,10,9,1,18,13,24,0.00,4,Snow,41
2014-3-17,44,32,19,21,16,12,80,55,31,30.10,29.79,29.60,10,10,10,20,10,26,0.00,1,,168
2014-3-18,53,43,33,39,30,19,93,61,45,29.62,29.57,29.51,10,10,7,16,10,23,0.00,3,Rain,123
2014-3-19,41,36,32,39,28,25,93,75,53,30.05,29.91,29.59,10,8,2,26,15,37,0.00,6,Snow,297
2014-3-20,55,42,30,30,27,23,80,58,35,30.05,29.97,29.88,10,10,10,13,7,21,0.00,1,,106
2014-3-21,59,46,33,34,30,25,81,61,34,30.13,29.87,29.77,10,10,10,25,12,34,0.00,1,,329
2014-3-22,33,28,23,25,14,9,75,56,35,30.46,30.31,30.13,10,10,10,23,17,33,0.00,3,,338
2014-3-23,32,24,15,12,8,5,73,51,32,30.53,30.45,30.35,10,10,10,16,9,20,0.00,2,,355
2014-3-24,35,29,23,30,22,12,93,76,52,30.38,30.26,30.15,10,7,1,15,6,16,0.00,6,Snow,184
2014-3-25,32,26,21,21,11,3,86,56,30,30.33,30.24,30.17,10,10,5,23,11,31,0.00,3,Snow,316
2014-3-26,53,36,19,39,15,7,93,52,22,30.22,30.04,29.76,10,10,2,28,12,43,0.00,3,,162
2014-3-27,55,46,35,52,42,34,100,90,82,29.75,29.50,29.27,10,6,2,32,17,41,0.08,8,,180
2014-3-28,37,35,33,34,30,28,93,81,75,30.20,30.01,29.69,10,10,8,21,12,29,0.00,8,,339
2014-3-29,51,40,28,30,27,25,93,63,38,30.28,30.21,30.17,10,10,7,10,6,14,0.00,2,,338
2014-3-30,69,52,35,32,30,28,81,47,21,30.18,29.97,29.82,10,10,9,26,13,37,0.00,1,,165
2014-3-31,75,54,32,48,36,18,77,49,31,29.81,29.66,29.44,10,10,4,34,16,44,0.08,2,Rain,185